πŸ“Š DonnΓ©es MΓ©tΓ©o - Bordeaux

Total mesures

14,321

TempΓ©rature moyenne

18.8Β°C

Temp. Min/Max

2.9Β° / 42.4Β°

HumiditΓ© moyenne

64.9%

Pression moyenne

1014.7 hPa
enregistrements
ID Date/Heure Temp (Β°C) HumiditΓ© (%) Pression (hPa) Tendance LuminositΓ© (lux) Situation
14121 01/09/2026 00:45 16.7 90.0 1,020.6 β†’ Stable 0 pluvieux-gris (approx.)
14120 01/09/2026 00:30 16.8 88.0 1,020.6 β†’ Stable 0 pluvieux-gris (approx.)
14119 01/09/2026 00:15 16.9 87.0 1,020.6 β†’ Stable 0 pluvieux-gris (approx.)
14118 01/09/2026 00:00 17.1 87.0 1,020.6 β†’ Stable 0 pluvieux-gris (approx.)
14117 31/08/2026 23:45 17.2 86.0 1,020.7 β†’ Stable 0 pluvieux-gris (approx.)
14116 31/08/2026 23:30 17.4 86.0 1,020.7 β†’ Stable 0 pluvieux-gris (approx.)
14115 31/08/2026 23:15 17.6 85.0 1,020.7 β†’ Stable 0 pluvieux-gris (approx.)
14114 31/08/2026 23:00 17.8 84.0 1,020.9 β†’ Stable 0 pluvieux-gris (approx.)
14113 31/08/2026 22:45 18.0 83.0 1,020.9 β†’ Stable 0 pluvieux-gris (approx.)
14112 31/08/2026 22:30 18.0 82.0 1,020.9 β†’ Stable 0 pluvieux-gris (approx.)
14111 31/08/2026 22:15 18.2 81.0 1,020.9 β†’ Stable 0 pluvieux-gris (approx.)
14110 31/08/2026 21:45 18.6 79.0 1,020.8 β†’ Stable 0 pluvieux-gris (approx.)
14109 31/08/2026 21:30 18.9 79.0 1,020.8 β†’ Stable 0 pluvieux-gris (approx.)
14108 31/08/2026 21:15 19.1 78.0 1,020.8 β†’ Stable 0 pluvieux-gris (approx.)
14107 31/08/2026 21:00 19.3 77.0 1,020.8 β†’ Stable 0 pluvieux-gris (approx.)
14106 31/08/2026 20:45 19.6 75.0 1,020.3 β†’ Stable 0 pluvieux-gris (approx.)
14105 31/08/2026 20:30 20.0 71.0 1,020.3 β†’ Stable 0 pluvieux-gris (approx.)
14104 31/08/2026 20:15 20.3 69.0 1,020.3 β†’ Stable 0 frais-stable
14103 31/08/2026 20:00 20.6 68.0 1,020.3 β†’ Stable 0 frais-stable
14102 31/08/2026 19:45 20.8 66.0 1,019.7 β†’ Stable 0 frais-stable
14101 31/08/2026 19:30 21.5 63.0 1,019.7 β†’ Stable 0 frais-stable
14100 31/08/2026 19:15 21.8 62.0 1,019.7 β†’ Stable 0 frais-stable
14099 31/08/2026 18:45 22.5 58.0 1,019.4 β†’ Stable 0 frais-stable
14098 31/08/2026 18:30 23.0 53.0 1,019.4 β†’ Stable 1,848 frais-stable
14097 31/08/2026 18:15 23.4 51.0 1,019.4 β†’ Stable 7,032 conditions-neutrales-ou-non-definies
14096 31/08/2026 17:45 24.1 49.0 1,019.2 β†’ Stable 15,372 confortablement-chaud (approx.)
14095 31/08/2026 17:15 24.6 48.0 1,019.2 β†’ Stable 26,016 confortablement-chaud (approx.)
14094 31/08/2026 16:45 25.1 46.0 1,019.1 β†’ Stable 36,300 confortablement-chaud (approx.)
14093 31/08/2026 16:15 25.7 42.0 1,019.1 β†’ Stable 44,256 confortablement-chaud (approx.)
14092 31/08/2026 15:45 26.0 41.0 1,018.8 β†’ Stable 56,664 confortablement-chaud (approx.)
14091 31/08/2026 15:15 26.2 41.0 1,018.8 β†’ Stable 62,040 confortablement-chaud (approx.)
14090 31/08/2026 14:45 26.4 40.0 1,018.9 β†’ Stable 72,504 confortablement-chaud
14089 31/08/2026 14:30 26.4 39.0 1,018.9 β†’ Stable 76,116 confortablement-chaud (approx.)
14088 31/08/2026 14:15 26.5 38.0 1,018.9 β†’ Stable 79,260 confortablement-chaud (approx.)
14087 31/08/2026 14:00 26.6 38.0 1,018.9 β†’ Stable 82,224 confortablement-chaud (approx.)
14086 31/08/2026 13:45 26.5 38.0 1,018.9 β†’ Stable 84,720 confortablement-chaud (approx.)
14085 31/08/2026 13:15 26.4 38.0 1,019.1 β†’ Stable 91,200 confortablement-chaud (approx.)
14084 31/08/2026 13:00 26.3 39.0 1,019.1 β†’ Stable 89,904 confortablement-chaud (approx.)
14083 31/08/2026 12:45 26.2 40.0 1,019.3 β†’ Stable 90,924 confortablement-chaud
14082 31/08/2026 12:30 25.9 41.0 1,019.3 β†’ Stable 86,940 confortablement-chaud
14081 31/08/2026 12:15 25.7 42.0 1,019.3 β†’ Stable 87,132 confortablement-chaud
14080 31/08/2026 11:45 25.4 44.0 1,019.6 β†’ Stable 88,704 confortablement-chaud
14079 31/08/2026 11:30 24.2 50.0 1,019.6 β†’ Stable 67,680 confortablement-chaud (approx.)
14078 31/08/2026 11:15 24.7 49.0 1,019.6 β†’ Stable 65,652 confortablement-chaud (approx.)
14077 31/08/2026 11:00 23.7 52.0 1,020.0 β†’ Stable 50,928 conditions-neutrales-ou-non-definies
14076 31/08/2026 10:45 23.9 53.0 1,020.0 β†’ Stable 45,828 conditions-neutrales-ou-non-definies
14075 31/08/2026 10:15 23.2 60.0 1,020.0 β†’ Stable 56,292 conditions-neutrales-ou-non-definies
14074 31/08/2026 10:00 22.4 63.0 1,020.0 β†’ Stable 51,024 frais-stable
14073 31/08/2026 09:45 22.5 65.0 1,019.8 β†’ Stable 47,316 frais-stable
14072 31/08/2026 09:30 22.1 68.0 1,019.8 β†’ Stable 46,200 frais-stable
14071 31/08/2026 09:15 21.9 70.0 1,019.8 β†’ Stable 44,352 pluvieux-gris (approx.)
14070 31/08/2026 08:45 22.0 70.0 1,019.3 β†’ Stable 50,460 pluvieux-gris (approx.)
14069 31/08/2026 08:15 21.7 71.0 1,019.3 β†’ Stable 37,680 pluvieux-gris (approx.)
14068 31/08/2026 07:45 20.7 75.0 1,018.8 β†’ Stable 32,040 pluvieux-gris (approx.)
14067 31/08/2026 07:30 19.6 79.0 1,018.8 β†’ Stable 22,128 pluvieux-gris (approx.)
14066 31/08/2026 07:15 19.6 78.0 1,018.8 β†’ Stable 19,080 pluvieux-gris (approx.)
14065 31/08/2026 07:00 19.1 80.0 1,018.8 β†’ Stable 17,868 pluvieux-gris (approx.)
14064 31/08/2026 06:45 18.6 81.0 1,018.6 β†’ Stable 14,724 pluvieux-gris (approx.)
14063 31/08/2026 06:30 17.9 83.0 1,018.6 β†’ Stable 11,292 pluvieux-gris (approx.)
14062 31/08/2026 06:15 17.5 85.0 1,018.6 β†’ Stable 7,224 pluvieux-gris (approx.)
14061 31/08/2026 05:45 16.9 87.0 1,018.4 β†’ Stable 744 pluvieux-gris (approx.)
14060 31/08/2026 05:30 17.0 86.0 1,018.4 β†’ Stable 0 pluvieux-gris (approx.)
14059 31/08/2026 05:15 17.1 86.0 1,018.4 β†’ Stable 0 pluvieux-gris (approx.)
14058 31/08/2026 04:45 17.2 85.0 1,018.3 β†’ Stable 0 pluvieux-gris (approx.)
14057 31/08/2026 04:15 17.2 87.0 1,018.3 β†’ Stable 0 pluvieux-gris (approx.)
14056 31/08/2026 03:45 17.2 87.0 1,018.3 β†’ Stable 0 pluvieux-gris (approx.)
14055 31/08/2026 03:30 18.4 82.0 1,018.3 β†’ Stable 0 pluvieux-gris (approx.)
14054 31/08/2026 03:15 18.5 82.0 1,018.3 β†’ Stable 0 pluvieux-gris (approx.)
14053 31/08/2026 02:45 18.1 83.0 1,018.1 β†’ Stable 0 pluvieux-gris (approx.)
14052 31/08/2026 02:15 18.2 83.0 1,018.1 β†’ Stable 0 pluvieux-gris (approx.)
14051 31/08/2026 01:45 17.8 84.0 1,018.0 β†’ Stable 0 pluvieux-gris (approx.)
14050 31/08/2026 01:30 18.2 81.0 1,018.0 β†’ Stable 0 pluvieux-gris (approx.)
14049 31/08/2026 01:15 18.2 81.0 1,018.0 β†’ Stable 0 pluvieux-gris (approx.)
14048 31/08/2026 00:45 18.2 82.0 1,018.0 β†’ Stable 0 pluvieux-gris (approx.)
14047 31/08/2026 00:30 18.6 81.0 1,018.0 β†’ Stable 0 pluvieux-gris (approx.)
14046 31/08/2026 00:15 18.7 81.0 1,018.0 β†’ Stable 0 pluvieux-gris (approx.)
14045 30/08/2026 23:45 18.9 81.0 1,017.9 β†’ Stable 0 pluvieux-gris (approx.)
14044 30/08/2026 23:30 19.4 79.0 1,017.9 β†’ Stable 0 pluvieux-gris (approx.)
14043 30/08/2026 23:15 19.4 78.0 1,017.9 β†’ Stable 0 pluvieux-gris (approx.)
14042 30/08/2026 23:00 19.4 78.0 1,018.4 β†’ Stable 0 pluvieux-gris (approx.)
14041 30/08/2026 22:45 19.3 79.0 1,017.9 β†’ Stable 0 pluvieux-gris (approx.)
14040 30/08/2026 22:15 19.2 81.0 1,017.9 β†’ Stable 0 pluvieux-gris (approx.)
14039 30/08/2026 21:45 19.5 81.0 1,017.6 β†’ Stable 0 pluvieux-gris (approx.)
14038 30/08/2026 21:30 20.1 78.0 1,017.6 β†’ Stable 0 pluvieux-gris (approx.)
14037 30/08/2026 21:15 20.3 77.0 1,017.6 β†’ Stable 0 pluvieux-gris (approx.)
14036 30/08/2026 21:00 20.6 76.0 1,017.6 β†’ Stable 0 pluvieux-gris (approx.)
14035 30/08/2026 20:45 20.7 76.0 1,017.2 β†’ Stable 0 pluvieux-gris (approx.)
14034 30/08/2026 20:15 21.0 75.0 1,017.2 β†’ Stable 0 pluvieux-gris (approx.)
14033 30/08/2026 19:45 20.8 71.0 1,016.3 β†’ Stable 0 pluvieux-gris (approx.)
14032 30/08/2026 19:30 21.1 72.0 1,016.3 β†’ Stable 0 pluvieux-gris (approx.)
14031 30/08/2026 19:15 21.3 71.0 1,016.4 β†’ Stable 0 pluvieux-gris (approx.)
14030 30/08/2026 19:00 21.6 70.0 1,016.4 β†’ Stable 0 pluvieux-gris (approx.)
14029 30/08/2026 18:45 21.9 68.0 1,015.8 β†’ Stable 0 frais-stable
14028 30/08/2026 18:30 22.3 65.0 1,015.8 β†’ Stable 1,476 frais-stable
14027 30/08/2026 18:15 22.6 66.0 1,015.8 β†’ Stable 4,812 frais-stable
14026 30/08/2026 17:45 22.8 66.0 1,015.3 β†’ Stable 14,820 frais-stable
14025 30/08/2026 17:30 22.7 64.0 1,015.3 β†’ Stable 20,460 frais-stable
14024 30/08/2026 17:15 22.8 64.0 1,015.3 β†’ Stable 25,368 frais-stable
14023 30/08/2026 17:00 22.9 64.0 1,015.3 β†’ Stable 31,476 frais-stable
14022 30/08/2026 16:45 22.9 65.0 1,015.4 β†’ Stable 36,756 frais-stable